createdAt,value
2017-10-26T00:00:43.847Z,99.24
2017-10-26T00:02:45.254Z,98.76
2017-10-26T00:04:46.683Z,99.43
2017-10-26T00:06:48.103Z,99.05
2017-10-26T00:08:49.541Z,97.80
2017-10-26T00:10:50.959Z,97.52
2017-10-26T00:12:52.483Z,97.04
2017-10-26T00:14:54.110Z,97.80
2017-10-26T00:16:55.530Z,98.38
2017-10-26T00:18:57.001Z,98.47
2017-10-26T00:20:58.486Z,98.47
2017-10-26T00:22:59.999Z,99.29
2017-10-26T00:25:01.490Z,98.61
2017-10-26T00:27:03.001Z,99.19
2017-10-26T00:29:45.464Z,99.29
2017-10-26T00:31:46.878Z,99.38
2017-10-26T00:33:48.783Z,99.99
2017-10-26T00:35:50.194Z,99.99
2017-10-26T00:37:51.617Z,99.99
2017-10-26T00:39:53.030Z,99.99
2017-10-26T00:41:54.459Z,99.99
2017-10-26T00:44:35.940Z,99.99
2017-10-26T00:46:37.360Z,99.99
2017-10-26T00:48:38.768Z,99.99
2017-10-26T00:50:40.182Z,99.99
2017-10-26T00:52:41.603Z,99.99
2017-10-26T00:54:43.009Z,99.99
2017-10-26T00:56:44.433Z,99.99
2017-10-26T00:58:45.851Z,99.99
2017-10-26T01:00:47.258Z,99.99
2017-10-26T01:02:48.671Z,99.99
2017-10-26T01:04:50.089Z,99.99
2017-10-26T01:06:51.662Z,99.99
2017-10-26T01:08:53.285Z,99.99
2017-10-26T01:10:54.698Z,99.99
2017-10-26T01:12:56.111Z,99.99
2017-10-26T01:15:38.885Z,99.99
2017-10-26T01:17:40.303Z,99.99
2017-10-26T01:19:41.715Z,99.99
2017-10-26T01:21:43.146Z,99.99
2017-10-26T01:23:44.558Z,99.99
2017-10-26T01:25:45.969Z,99.99
2017-10-26T01:27:47.385Z,99.99
2017-10-26T01:29:48.803Z,99.99
2017-10-26T01:32:31.703Z,99.99
2017-10-26T01:34:33.152Z,99.99
2017-10-26T01:36:34.579Z,99.99
2017-10-26T01:38:35.980Z,99.99
2017-10-26T01:40:37.574Z,99.99
2017-10-26T01:42:39.016Z,99.99
2017-10-26T01:44:40.418Z,99.99
2017-10-26T01:46:41.839Z,99.99
2017-10-26T01:48:43.251Z,99.99
2017-10-26T01:50:44.679Z,99.99
2017-10-26T01:52:46.087Z,99.99
2017-10-26T01:54:47.502Z,99.99
2017-10-26T01:56:49.185Z,99.99
2017-10-26T01:58:50.460Z,99.99
2017-10-26T02:00:51.871Z,99.99
2017-10-26T02:03:33.859Z,99.99
2017-10-26T02:05:35.327Z,99.99
2017-10-26T02:07:36.748Z,99.99
2017-10-26T02:09:38.177Z,99.99
2017-10-26T02:11:39.634Z,99.99
2017-10-26T02:13:41.057Z,99.99
2017-10-26T02:15:42.516Z,99.99
2017-10-26T02:17:43.973Z,99.99
2017-10-26T02:20:25.797Z,99.99
2017-10-26T02:22:27.222Z,99.99
2017-10-26T02:24:28.628Z,99.99
2017-10-26T02:26:30.116Z,99.99
2017-10-26T02:28:31.532Z,99.99
2017-10-26T02:30:32.947Z,99.99
2017-10-26T02:32:34.391Z,99.99
2017-10-26T02:35:17.180Z,99.99
2017-10-26T02:37:18.582Z,99.99
2017-10-26T02:39:20.025Z,99.99
2017-10-26T02:41:21.418Z,99.99
2017-10-26T02:43:23.514Z,99.99
2017-10-26T02:45:24.903Z,99.99
2017-10-26T02:47:26.353Z,99.99
2017-10-26T02:49:27.780Z,99.99
2017-10-26T02:51:29.210Z,99.99
2017-10-26T02:53:30.622Z,99.99
2017-10-26T02:55:32.042Z,99.99
2017-10-26T02:57:33.465Z,99.99
2017-10-26T02:59:34.920Z,99.99
2017-10-26T03:01:36.422Z,99.99
2017-10-26T03:03:38.204Z,99.99
2017-10-26T03:05:40.018Z,99.99
2017-10-26T03:07:41.511Z,99.99
2017-10-26T03:09:43.068Z,99.99
2017-10-26T03:11:44.564Z,99.99
2017-10-26T03:13:46.074Z,99.99
2017-10-26T03:15:47.525Z,99.99
2017-10-26T03:17:49.086Z,99.99
2017-10-26T03:19:50.594Z,99.99
2017-10-26T03:22:33.033Z,99.99
2017-10-26T03:24:34.441Z,99.99
2017-10-26T03:26:35.856Z,99.99
2017-10-26T03:28:37.273Z,99.99
2017-10-26T03:30:38.705Z,99.99
2017-10-26T03:32:40.119Z,99.99
2017-10-26T03:34:41.532Z,99.99
2017-10-26T03:36:42.946Z,99.99
2017-10-26T03:38:44.356Z,99.99
2017-10-26T03:40:45.780Z,99.99
2017-10-26T03:42:47.194Z,99.99
2017-10-26T03:44:48.615Z,99.99
2017-10-26T03:46:50.040Z,99.99
2017-10-26T03:48:51.506Z,99.99
2017-10-26T03:50:52.908Z,99.99
2017-10-26T03:52:54.324Z,99.99
2017-10-26T03:55:36.747Z,99.99
2017-10-26T03:57:38.166Z,99.99
2017-10-26T03:59:39.593Z,99.99
2017-10-26T04:01:41.008Z,99.99
2017-10-26T04:03:42.446Z,99.99
2017-10-26T04:05:43.889Z,99.99
2017-10-26T04:07:45.302Z,99.99
2017-10-26T04:10:27.190Z,99.99
2017-10-26T04:12:28.613Z,99.99
2017-10-26T04:14:30.027Z,99.99
2017-10-26T04:16:31.465Z,99.99
2017-10-26T04:18:32.862Z,99.99
2017-10-26T04:20:34.296Z,99.99
2017-10-26T04:22:35.725Z,99.99
2017-10-26T04:24:37.129Z,99.99
2017-10-26T04:27:19.574Z,99.99
2017-10-26T04:29:20.985Z,99.99
2017-10-26T04:31:23.043Z,99.99
2017-10-26T04:33:24.416Z,99.99
2017-10-26T04:35:25.825Z,99.99
2017-10-26T04:37:27.266Z,99.99
2017-10-26T04:39:28.754Z,99.99
2017-10-26T04:41:30.250Z,99.99
2017-10-26T04:43:31.730Z,99.99
2017-10-26T04:45:33.272Z,99.99
2017-10-26T04:47:34.764Z,99.99
2017-10-26T04:49:36.242Z,99.99
2017-10-26T04:51:37.787Z,99.99
2017-10-26T04:53:39.371Z,99.99
2017-10-26T04:55:40.862Z,99.99
2017-10-26T04:58:23.261Z,99.99
2017-10-26T05:00:24.678Z,99.99
2017-10-26T05:02:26.097Z,99.99
2017-10-26T05:04:27.513Z,99.99
2017-10-26T05:06:28.928Z,99.57
2017-10-26T05:08:30.559Z,99.57
2017-10-26T05:10:31.973Z,99.38
2017-10-26T05:12:33.389Z,99.99
2017-10-26T05:15:15.807Z,99.99
2017-10-26T05:17:17.220Z,99.99
2017-10-26T05:19:18.637Z,99.99
2017-10-26T05:21:20.054Z,99.99
2017-10-26T05:23:21.468Z,99.99
2017-10-26T05:25:23.499Z,99.99
2017-10-26T05:27:24.902Z,99.99
2017-10-26T05:29:26.324Z,99.99
2017-10-26T05:31:27.732Z,99.99
2017-10-26T05:33:29.149Z,99.99
2017-10-26T05:35:30.638Z,99.99
2017-10-26T05:37:32.357Z,99.99
2017-10-26T05:39:34.202Z,99.99
2017-10-26T05:41:36.041Z,99.99
2017-10-26T05:43:37.471Z,99.99
2017-10-26T05:46:20.029Z,99.99
2017-10-26T05:48:21.578Z,99.99
2017-10-26T05:50:22.918Z,99.99
2017-10-26T05:52:24.390Z,99.99
2017-10-26T05:54:25.832Z,99.99
2017-10-26T05:56:27.243Z,99.99
2017-10-26T05:58:28.657Z,99.99
2017-10-26T06:01:11.062Z,99.99
2017-10-26T06:03:12.478Z,99.99
2017-10-26T06:05:13.892Z,99.99
2017-10-26T06:07:15.305Z,99.99
2017-10-26T06:09:16.728Z,99.99
2017-10-26T06:11:18.181Z,99.99
2017-10-26T06:13:19.584Z,99.99
2017-10-26T06:15:21.004Z,99.99
2017-10-26T06:18:03.795Z,99.99
2017-10-26T06:20:05.243Z,99.99
2017-10-26T06:22:06.656Z,99.99
2017-10-26T06:24:08.068Z,99.99
2017-10-26T06:26:09.486Z,99.99
2017-10-26T06:28:10.901Z,99.99
2017-10-26T06:30:12.343Z,99.99
2017-10-26T06:32:13.769Z,99.99
2017-10-26T06:34:15.204Z,99.99
2017-10-26T06:36:16.620Z,99.99
2017-10-26T06:38:18.034Z,99.99
2017-10-26T06:40:19.449Z,99.99
2017-10-26T06:42:20.862Z,99.99
2017-10-26T06:44:22.282Z,99.99
2017-10-26T06:46:23.704Z,99.99
2017-10-26T06:49:06.101Z,99.99
2017-10-26T06:51:07.554Z,99.99
2017-10-26T06:53:08.971Z,99.99
2017-10-26T06:55:10.396Z,99.99
2017-10-26T06:57:11.805Z,99.99
2017-10-26T06:59:13.219Z,99.99
2017-10-26T07:01:14.644Z,99.99
2017-10-26T07:03:16.064Z,99.99
2017-10-26T07:05:17.484Z,99.99
2017-10-26T07:07:18.937Z,99.99
2017-10-26T07:09:20.536Z,99.99
2017-10-26T07:11:21.953Z,99.99
2017-10-26T07:13:23.398Z,99.99
2017-10-26T07:15:24.817Z,99.99
2017-10-26T07:17:26.242Z,99.99
2017-10-26T07:19:27.671Z,99.99
2017-10-26T07:21:29.099Z,99.99
2017-10-26T07:23:30.513Z,99.99
2017-10-26T07:25:31.930Z,99.99
2017-10-26T07:27:33.355Z,99.99
2017-10-26T07:29:34.760Z,99.99
2017-10-26T07:31:36.230Z,99.99
2017-10-26T07:33:37.634Z,99.99
2017-10-26T07:35:39.063Z,99.99
2017-10-26T07:37:40.482Z,99.99
2017-10-26T07:39:41.900Z,99.99
2017-10-26T07:41:43.312Z,99.99
2017-10-26T07:43:44.746Z,99.99
2017-10-26T07:45:46.230Z,99.99
2017-10-26T07:47:47.710Z,99.99
2017-10-26T07:49:49.132Z,99.99
2017-10-26T07:51:50.546Z,99.99
2017-10-26T07:53:52.051Z,99.99
2017-10-26T07:55:53.552Z,99.99
2017-10-26T07:57:55.037Z,99.99
2017-10-26T07:59:56.529Z,99.99
2017-10-26T08:01:58.033Z,99.99
2017-10-26T08:03:59.520Z,99.99
2017-10-26T08:06:01.045Z,99.99
2017-10-26T08:08:02.529Z,99.99
2017-10-26T08:10:04.036Z,99.99
2017-10-26T08:12:05.519Z,99.99
2017-10-26T08:14:06.982Z,99.99
2017-10-26T08:16:08.430Z,99.99
2017-10-26T08:18:09.872Z,99.99
2017-10-26T08:20:11.423Z,99.99
2017-10-26T08:22:12.966Z,99.99
2017-10-26T08:24:55.377Z,99.99
2017-10-26T08:26:56.797Z,99.99
2017-10-26T08:28:58.217Z,99.99
2017-10-26T08:30:59.636Z,99.99
2017-10-26T08:33:01.050Z,99.99
2017-10-26T08:35:02.484Z,99.99
2017-10-26T08:37:03.905Z,99.99
2017-10-26T08:39:05.325Z,99.99
2017-10-26T08:41:06.750Z,99.99
2017-10-26T08:43:08.167Z,99.99
2017-10-26T08:45:09.584Z,99.99
2017-10-26T08:47:10.997Z,99.99
2017-10-26T08:49:12.425Z,99.99
2017-10-26T08:51:13.843Z,99.99
2017-10-26T08:53:15.262Z,99.99
2017-10-26T08:55:57.693Z,99.99
2017-10-26T08:57:59.110Z,99.99
2017-10-26T09:00:00.541Z,99.99
2017-10-26T09:02:01.947Z,99.99
2017-10-26T09:04:03.372Z,99.99
2017-10-26T09:06:04.786Z,99.99
2017-10-26T09:08:06.212Z,99.99
2017-10-26T09:10:07.636Z,99.99
2017-10-26T09:12:09.056Z,99.99
2017-10-26T09:14:10.484Z,99.99
2017-10-26T09:16:11.902Z,99.99
2017-10-26T09:18:13.324Z,99.99
2017-10-26T09:20:14.791Z,99.99
2017-10-26T09:22:16.212Z,99.99
2017-10-26T09:24:17.614Z,99.99
2017-10-26T09:26:19.047Z,99.99
2017-10-26T09:28:20.576Z,99.99
2017-10-26T09:30:21.993Z,99.99
2017-10-26T09:32:23.411Z,99.33
2017-10-26T09:34:24.839Z,99.05
2017-10-26T09:36:26.260Z,99.62
2017-10-26T09:38:27.679Z,99.62
2017-10-26T09:40:29.110Z,98.91
2017-10-26T09:42:30.526Z,98.71
2017-10-26T09:44:31.953Z,99.29
2017-10-26T09:46:33.368Z,98.05
2017-10-26T09:48:34.796Z,98.47
2017-10-26T09:50:36.224Z,99.10
2017-10-26T09:52:37.643Z,98.33
2017-10-26T09:54:39.062Z,98.05
2017-10-26T09:56:40.474Z,98.71
2017-10-26T09:58:41.904Z,98.05
2017-10-26T10:00:43.324Z,97.18
2017-10-26T10:02:44.743Z,96.70
2017-10-26T10:04:46.191Z,96.61
2017-10-26T10:06:47.610Z,96.70
2017-10-26T10:08:49.032Z,96.99
2017-10-26T10:10:50.448Z,96.99
2017-10-26T10:12:51.879Z,97.28
2017-10-26T10:14:53.313Z,96.80
2017-10-26T10:16:54.731Z,96.22
2017-10-26T10:18:56.163Z,96.03
2017-10-26T10:20:57.603Z,95.17
2017-10-26T10:22:59.008Z,95.36
2017-10-26T10:25:00.432Z,95.60
2017-10-26T10:27:01.888Z,95.98
2017-10-26T10:29:03.296Z,95.12
2017-10-26T10:31:04.731Z,94.50
2017-10-26T10:33:06.297Z,94.21
2017-10-26T10:35:07.791Z,95.65
2017-10-26T10:37:09.263Z,95.27
2017-10-26T10:39:10.736Z,96.22
2017-10-26T10:41:12.242Z,97.66
2017-10-26T10:43:13.760Z,97.09
2017-10-26T10:45:15.283Z,95.46
2017-10-26T10:47:16.739Z,95.31
2017-10-26T10:49:18.247Z,95.31
2017-10-26T10:51:19.784Z,92.92
2017-10-26T10:53:21.294Z,94.26
2017-10-26T10:55:22.735Z,94.17
2017-10-26T10:57:24.258Z,93.98
2017-10-26T10:59:25.789Z,94.84
2017-10-26T11:01:27.295Z,93.49
2017-10-26T11:03:28.785Z,93.98
2017-10-26T11:05:30.286Z,94.02
2017-10-26T11:07:31.817Z,92.25
2017-10-26T11:09:33.231Z,92.73
2017-10-26T11:11:34.759Z,93.02
2017-10-26T11:13:36.284Z,93.40
2017-10-26T11:15:37.793Z,92.49
2017-10-26T11:17:39.226Z,92.49
2017-10-26T11:19:40.715Z,91.49
2017-10-26T11:21:42.179Z,93.11
2017-10-26T11:23:43.662Z,94.02
2017-10-26T11:25:45.173Z,92.10
2017-10-26T11:27:46.672Z,91.34
2017-10-26T11:29:48.130Z,91.53
2017-10-26T11:31:49.638Z,90.57
2017-10-26T11:33:51.121Z,91.72
2017-10-26T11:35:52.588Z,89.71
2017-10-26T11:37:54.111Z,90.09
2017-10-26T11:39:55.556Z,89.61
2017-10-26T11:41:57.047Z,89.61
2017-10-26T11:43:58.532Z,89.04
2017-10-26T11:46:00.080Z,89.13
2017-10-26T11:48:01.601Z,89.85
2017-10-26T11:50:03.111Z,88.60
2017-10-26T11:52:04.631Z,88.89
2017-10-26T11:54:06.138Z,88.31
2017-10-26T11:56:07.615Z,89.08
2017-10-26T11:58:09.145Z,87.74
2017-10-26T12:00:10.740Z,87.98
2017-10-26T12:02:12.247Z,88.75
2017-10-26T12:04:13.754Z,88.75
2017-10-26T12:06:15.322Z,89.04
2017-10-26T12:08:16.813Z,88.84
2017-10-26T12:10:18.275Z,89.47
2017-10-26T12:12:19.814Z,87.74
2017-10-26T12:14:21.372Z,88.31
2017-10-26T12:16:22.916Z,87.70
2017-10-26T12:18:24.371Z,88.65
2017-10-26T12:20:25.890Z,88.65
2017-10-26T12:22:27.389Z,89.32
2017-10-26T12:24:28.904Z,89.80
2017-10-26T12:26:30.382Z,88.75
2017-10-26T12:28:31.896Z,89.13
2017-10-26T12:30:33.387Z,88.60
2017-10-26T12:32:34.933Z,88.98
2017-10-26T12:34:36.465Z,88.60
2017-10-26T12:37:18.861Z,88.02
2017-10-26T12:39:20.272Z,88.98
2017-10-26T12:41:21.716Z,89.37
2017-10-26T12:43:23.141Z,89.08
2017-10-26T12:45:24.564Z,88.98
2017-10-26T12:47:25.991Z,87.45
2017-10-26T12:49:27.413Z,88.51
2017-10-26T12:51:28.836Z,88.65
2017-10-26T12:54:11.318Z,89.04
2017-10-26T12:56:12.727Z,88.89
2017-10-26T12:58:14.156Z,88.51
2017-10-26T13:00:15.563Z,87.07
2017-10-26T13:02:16.987Z,87.64
2017-10-26T13:04:18.411Z,87.84
2017-10-26T13:06:19.830Z,87.26
2017-10-26T13:08:21.248Z,87.41
2017-10-26T13:10:22.681Z,87.98
2017-10-26T13:12:24.094Z,89.18
2017-10-26T13:14:25.516Z,87.55
2017-10-26T13:16:26.940Z,87.64
2017-10-26T13:18:28.364Z,87.64
2017-10-26T13:20:29.794Z,87.45
2017-10-26T13:22:31.213Z,87.07
2017-10-26T13:24:32.637Z,86.68
2017-10-26T13:26:34.056Z,85.92
2017-10-26T13:28:35.484Z,86.34
2017-10-26T13:30:36.978Z,86.40
2017-10-26T13:32:38.401Z,85.34
2017-10-26T13:34:39.971Z,86.30
2017-10-26T13:36:41.395Z,87.45
2017-10-26T13:38:42.805Z,86.49
2017-10-26T13:40:44.235Z,86.63
2017-10-26T13:42:45.685Z,86.34
2017-10-26T13:44:47.116Z,85.96
2017-10-26T13:46:48.548Z,86.05
2017-10-26T13:48:49.982Z,85.58
2017-10-26T13:50:51.402Z,85.72
2017-10-26T13:52:52.823Z,86.15
2017-10-26T13:54:54.251Z,86.05
2017-10-26T13:56:55.686Z,85.28
2017-10-26T13:58:57.119Z,85.19
2017-10-26T14:00:58.555Z,84.52
2017-10-26T14:03:00.094Z,85.05
2017-10-26T14:05:01.517Z,84.19
2017-10-26T14:07:02.936Z,84.33
2017-10-26T14:09:04.364Z,85.00
2017-10-26T14:11:05.782Z,85.44
2017-10-26T14:13:07.198Z,85.28
2017-10-26T14:15:08.620Z,84.81
2017-10-26T14:17:10.046Z,84.33
2017-10-26T14:19:11.518Z,84.23
2017-10-26T14:21:13.100Z,83.94
2017-10-26T14:23:14.698Z,84.23
2017-10-26T14:25:16.257Z,83.18
2017-10-26T14:27:17.849Z,83.37
2017-10-26T14:30:00.233Z,83.33
2017-10-26T14:32:02.095Z,82.75
2017-10-26T14:34:03.516Z,82.60
2017-10-26T14:36:04.936Z,82.31
2017-10-26T14:38:06.359Z,81.35
2017-10-26T14:40:07.782Z,81.64
2017-10-26T14:42:09.216Z,81.64
2017-10-26T14:44:10.627Z,81.16
2017-10-26T14:46:12.050Z,81.35
2017-10-26T14:48:13.888Z,81.54
2017-10-26T14:50:15.454Z,81.93
2017-10-26T14:52:16.984Z,81.89
2017-10-26T14:54:18.485Z,82.60
2017-10-26T14:56:20.049Z,81.93
2017-10-26T14:58:21.575Z,82.12
2017-10-26T15:01:04.103Z,81.64
2017-10-26T15:03:06.240Z,81.74
2017-10-26T15:05:07.650Z,81.74
2017-10-26T15:07:09.087Z,82.70
2017-10-26T15:09:10.513Z,82.56
2017-10-26T15:11:12.069Z,82.65
2017-10-26T15:13:13.524Z,83.23
2017-10-26T15:15:55.911Z,84.19
2017-10-26T15:17:57.331Z,84.00
2017-10-26T15:19:58.760Z,84.86
2017-10-26T15:22:00.182Z,84.44
2017-10-26T15:24:01.601Z,84.86
2017-10-26T15:26:03.021Z,84.82
2017-10-26T15:28:04.441Z,84.77
2017-10-26T15:30:05.865Z,84.95
2017-10-26T15:32:48.267Z,84.44
2017-10-26T15:34:49.692Z,85.30
2017-10-26T15:36:51.107Z,85.34
2017-10-26T15:38:52.525Z,84.95
2017-10-26T15:40:53.944Z,85.25
2017-10-26T15:42:55.371Z,85.05
2017-10-26T15:44:56.792Z,85.34
2017-10-26T15:47:39.244Z,85.05
2017-10-26T15:49:40.647Z,85.82
2017-10-26T15:51:42.076Z,85.44
2017-10-26T15:53:43.487Z,85.53
2017-10-26T15:55:44.901Z,85.34
2017-10-26T15:57:46.321Z,85.15
2017-10-26T15:59:47.740Z,85.44
2017-10-26T16:01:49.167Z,85.05
2017-10-26T16:03:50.591Z,85.05
2017-10-26T16:05:52.007Z,84.86
2017-10-26T16:07:53.447Z,84.86
2017-10-26T16:09:54.846Z,85.05
2017-10-26T16:11:56.265Z,85.25
2017-10-26T16:13:57.691Z,85.34
2017-10-26T16:15:59.105Z,85.34
2017-10-26T16:18:00.525Z,85.72
2017-10-26T16:20:01.957Z,85.92
2017-10-26T16:22:03.378Z,85.82
2017-10-26T16:24:04.794Z,85.25
2017-10-26T16:26:06.211Z,85.34
2017-10-26T16:28:07.625Z,85.92
2017-10-26T16:30:09.052Z,85.72
2017-10-26T16:32:10.467Z,86.58
2017-10-26T16:34:11.909Z,86.58
2017-10-26T16:36:13.339Z,85.72
2017-10-26T16:38:14.748Z,85.92
2017-10-26T16:40:16.174Z,85.82
2017-10-26T16:42:17.598Z,85.63
2017-10-26T16:44:19.026Z,85.21
2017-10-26T16:46:20.434Z,85.34
2017-10-26T16:48:21.877Z,86.07
2017-10-26T16:50:23.292Z,86.58
2017-10-26T16:52:24.715Z,86.25
2017-10-26T16:54:26.142Z,86.49
2017-10-26T16:56:27.557Z,86.25
2017-10-26T16:58:28.982Z,85.88
2017-10-26T17:00:30.414Z,85.82
2017-10-26T17:02:31.831Z,85.88
2017-10-26T17:04:33.282Z,85.88
2017-10-26T17:06:34.789Z,85.49
2017-10-26T17:08:36.264Z,85.88
2017-10-26T17:10:37.702Z,86.16
2017-10-26T17:12:39.215Z,86.07
2017-10-26T17:14:40.635Z,86.16
2017-10-26T17:16:42.081Z,85.97
2017-10-26T17:18:43.570Z,86.25
2017-10-26T17:20:45.000Z,86.45
2017-10-26T17:22:46.418Z,86.25
2017-10-26T17:24:47.856Z,86.25
2017-10-26T17:26:49.271Z,86.64
2017-10-26T17:28:50.699Z,86.64
2017-10-26T17:30:52.112Z,86.25
2017-10-26T17:32:53.523Z,86.54
2017-10-26T17:34:54.950Z,86.07
2017-10-26T17:36:56.381Z,86.30
2017-10-26T17:38:57.822Z,86.35
2017-10-26T17:40:59.238Z,86.25
2017-10-26T17:43:00.670Z,85.58
2017-10-26T17:45:02.092Z,85.97
2017-10-26T17:47:03.524Z,85.78
2017-10-26T17:49:04.956Z,85.68
2017-10-26T17:51:06.370Z,85.58
2017-10-26T17:53:07.814Z,85.68
2017-10-26T17:55:09.236Z,85.39
2017-10-26T17:57:10.656Z,84.91
2017-10-26T17:59:12.069Z,84.91
2017-10-26T18:01:13.511Z,84.15
2017-10-26T18:03:14.919Z,83.67
2017-10-26T18:05:16.854Z,84.44
2017-10-26T18:07:18.292Z,84.53
2017-10-26T18:09:19.818Z,84.25
2017-10-26T18:11:21.258Z,84.63
2017-10-26T18:13:22.778Z,84.82
2017-10-26T18:15:24.274Z,84.91
2017-10-26T18:17:25.729Z,84.53
2017-10-26T18:19:27.263Z,84.05
2017-10-26T18:21:28.881Z,84.44
2017-10-26T18:23:30.418Z,84.05
2017-10-26T18:25:31.964Z,84.05
2017-10-26T18:27:33.460Z,83.48
2017-10-26T18:29:35.273Z,83.76
2017-10-26T18:31:36.715Z,83.29
2017-10-26T18:33:38.187Z,83.72
2017-10-26T18:35:40.321Z,83.67
2017-10-26T18:37:42.035Z,83.92
2017-10-26T18:39:43.561Z,83.72
2017-10-26T18:41:45.013Z,84.11
2017-10-26T18:43:46.432Z,84.25
2017-10-26T18:45:47.851Z,83.82
2017-10-26T18:47:49.267Z,83.44
2017-10-26T18:49:50.735Z,82.48
2017-10-26T18:51:52.160Z,83.05
2017-10-26T18:53:53.712Z,83.34
2017-10-26T18:55:55.249Z,83.15
2017-10-26T18:57:56.907Z,82.86
2017-10-26T18:59:58.428Z,83.05
2017-10-26T19:02:00.133Z,82.67
2017-10-26T19:04:02.111Z,82.57
2017-10-26T19:06:03.955Z,82.48
2017-10-26T19:08:05.436Z,82.48
2017-10-26T19:10:06.876Z,83.25
2017-10-26T19:12:08.398Z,82.38
2017-10-26T19:14:09.883Z,82.48
2017-10-26T19:16:11.386Z,82.38
2017-10-26T19:18:12.827Z,82.29
2017-10-26T19:20:14.309Z,82.29
2017-10-26T19:22:15.761Z,82.29
2017-10-26T19:24:17.250Z,82.48
2017-10-26T19:26:18.668Z,82.00
2017-10-26T19:28:20.083Z,81.62
2017-10-26T19:30:21.501Z,82.29
2017-10-26T19:32:22.921Z,82.38
2017-10-26T19:34:24.749Z,82.57
2017-10-26T19:36:26.664Z,81.62
2017-10-26T19:38:28.567Z,81.90
2017-10-26T19:40:30.094Z,82.38
2017-10-26T19:42:31.583Z,82.48
2017-10-26T19:44:33.097Z,82.09
2017-10-26T19:46:34.637Z,82.67
2017-10-26T19:48:36.187Z,82.09
2017-10-26T19:50:37.708Z,83.25
2017-10-26T19:52:39.260Z,82.67
2017-10-26T19:54:40.748Z,82.09
2017-10-26T19:56:42.249Z,82.09
2017-10-26T19:58:43.745Z,82.63
2017-10-26T20:01:26.170Z,83.82
2017-10-26T20:03:27.578Z,83.82
2017-10-26T20:05:28.990Z,83.97
2017-10-26T20:07:30.417Z,83.63
2017-10-26T20:09:31.829Z,83.53
2017-10-26T20:11:33.240Z,83.59
2017-10-26T20:13:34.657Z,84.26
2017-10-26T20:15:36.070Z,84.26
2017-10-26T20:17:37.488Z,83.97
2017-10-26T20:19:38.917Z,84.55
2017-10-26T20:21:40.326Z,84.92
2017-10-26T20:23:41.748Z,85.31
2017-10-26T20:25:43.173Z,86.80
2017-10-26T20:27:44.593Z,86.51
2017-10-26T20:29:46.014Z,86.99
2017-10-26T20:32:28.424Z,86.70
2017-10-26T20:34:29.839Z,86.80
2017-10-26T20:36:31.257Z,87.18
2017-10-26T20:38:32.666Z,86.80
2017-10-26T20:40:34.092Z,86.22
2017-10-26T20:42:35.506Z,86.80
2017-10-26T20:44:36.927Z,86.70
2017-10-26T20:46:38.346Z,87.85
2017-10-26T20:48:39.761Z,87.56
2017-10-26T20:51:22.229Z,87.85
2017-10-26T20:53:23.657Z,87.27
2017-10-26T20:55:25.059Z,86.80
2017-10-26T20:57:26.472Z,86.51
2017-10-26T20:59:28.082Z,86.36
2017-10-26T21:01:29.468Z,86.17
2017-10-26T21:03:30.881Z,86.17
2017-10-26T21:05:32.310Z,85.79
2017-10-26T21:07:33.721Z,86.32
2017-10-26T21:09:35.134Z,86.04
2017-10-26T21:11:36.562Z,86.13
2017-10-26T21:13:37.993Z,86.46
2017-10-26T21:15:39.437Z,86.46
2017-10-26T21:17:40.851Z,86.46
2017-10-26T21:19:42.274Z,86.61
2017-10-26T21:21:43.710Z,86.32
2017-10-26T21:24:25.499Z,87.27
2017-10-26T21:26:26.918Z,87.18
2017-10-26T21:28:28.324Z,87.76
2017-10-26T21:30:29.742Z,88.13
2017-10-26T21:32:31.159Z,87.95
2017-10-26T21:34:32.573Z,87.76
2017-10-26T21:36:34.008Z,87.66
2017-10-26T21:38:35.415Z,87.66
2017-10-26T21:41:17.924Z,87.85
2017-10-26T21:43:19.345Z,87.47
2017-10-26T21:45:20.753Z,87.27
2017-10-26T21:47:22.168Z,86.99
2017-10-26T21:49:23.581Z,86.70
2017-10-26T21:52:06.008Z,86.99
2017-10-26T21:54:07.425Z,87.08
2017-10-26T21:56:49.821Z,86.99
2017-10-26T21:58:51.245Z,87.27
2017-10-26T22:00:52.649Z,87.85
2017-10-26T22:02:54.063Z,87.95
2017-10-26T22:04:55.542Z,88.48
2017-10-26T22:06:56.960Z,88.57
2017-10-26T22:08:58.379Z,88.95
2017-10-26T22:10:59.785Z,89.05
2017-10-26T22:13:01.209Z,90.01
2017-10-26T22:15:02.629Z,89.72
2017-10-26T22:17:04.049Z,88.86
2017-10-26T22:19:05.463Z,89.15
2017-10-26T22:21:06.877Z,88.76
2017-10-26T22:23:08.303Z,88.95
2017-10-26T22:25:09.783Z,88.95
2017-10-26T22:27:11.199Z,89.15
2017-10-26T22:29:12.616Z,88.95
2017-10-26T22:31:14.030Z,89.00
2017-10-26T22:33:15.446Z,89.24
2017-10-26T22:35:16.862Z,89.29
2017-10-26T22:37:18.279Z,89.29
2017-10-26T22:39:19.687Z,88.81
2017-10-26T22:41:21.110Z,88.52
2017-10-26T22:43:22.523Z,88.62
2017-10-26T22:45:23.939Z,89.91
2017-10-26T22:47:25.360Z,89.34
2017-10-26T22:49:26.775Z,89.43
2017-10-26T22:51:28.192Z,89.24
2017-10-26T22:53:29.612Z,89.34
2017-10-26T22:56:12.019Z,89.43
2017-10-26T22:58:13.441Z,89.38
2017-10-26T23:00:14.851Z,89.19
2017-10-26T23:02:16.268Z,88.90
2017-10-26T23:04:17.704Z,88.71
2017-10-26T23:06:19.123Z,88.90
2017-10-26T23:08:20.540Z,88.52
2017-10-26T23:10:21.956Z,88.23
2017-10-26T23:12:23.374Z,88.71
2017-10-26T23:14:24.786Z,88.23
2017-10-26T23:16:26.205Z,88.13
2017-10-26T23:18:27.617Z,88.23
2017-10-26T23:20:29.034Z,87.85
2017-10-26T23:22:30.451Z,88.13
2017-10-26T23:24:31.873Z,88.23
2017-10-26T23:26:33.286Z,88.43
2017-10-26T23:28:34.747Z,88.33
2017-10-26T23:30:36.182Z,88.23
2017-10-26T23:32:37.623Z,89.09
2017-10-26T23:34:39.028Z,89.09
2017-10-26T23:36:40.444Z,88.33
2017-10-26T23:38:41.888Z,88.62
2017-10-26T23:40:43.299Z,88.04
2017-10-26T23:43:25.763Z,87.56
2017-10-26T23:45:27.181Z,87.62
2017-10-26T23:47:28.596Z,87.33
2017-10-26T23:49:30.010Z,86.57
2017-10-26T23:51:31.422Z,86.08
2017-10-26T23:53:32.833Z,86.37
2017-10-26T23:55:34.260Z,87.52
2017-10-26T23:57:35.824Z,86.66
2017-10-26T23:59:37.216Z,86.18
